createdAt,value
2016-11-14T00:00:51.690Z,19.59
2016-11-14T00:02:00.394Z,19.56
2016-11-14T00:03:09.379Z,19.58
2016-11-14T00:04:18.697Z,19.58
2016-11-14T00:05:27.894Z,19.58
2016-11-14T00:06:37.244Z,19.59
2016-11-14T00:07:45.949Z,19.55
2016-11-14T00:08:55.663Z,19.55
2016-11-14T00:10:04.711Z,19.54
2016-11-14T00:11:14.004Z,19.56
2016-11-14T00:12:23.489Z,19.55
2016-11-14T00:13:32.487Z,19.55
2016-11-14T00:14:41.475Z,19.55
2016-11-14T00:15:50.778Z,19.58
2016-11-14T00:16:59.773Z,19.56
2016-11-14T00:18:08.628Z,19.56
2016-11-14T00:19:17.712Z,19.56
2016-11-14T00:20:26.390Z,19.56
2016-11-14T00:21:35.394Z,19.51
2016-11-14T00:22:44.708Z,19.54
2016-11-14T00:23:54.152Z,19.51
2016-11-14T00:25:03.047Z,19.55
2016-11-14T00:26:12.344Z,19.56
2016-11-14T00:27:21.341Z,19.5
2016-11-14T00:28:30.040Z,19.51
2016-11-14T00:29:39.691Z,19.51
2016-11-14T00:30:48.379Z,19.48
2016-11-14T00:31:57.062Z,19.48
2016-11-14T00:33:06.049Z,19.51
2016-11-14T00:34:15.060Z,19.54
2016-11-14T00:35:23.898Z,19.51
2016-11-14T00:36:32.885Z,19.56
2016-11-14T00:37:41.865Z,19.55
2016-11-14T00:38:50.556Z,19.51
2016-11-14T00:40:00.161Z,19.54
2016-11-14T00:41:09.767Z,19.43
2016-11-14T00:42:18.765Z,19.54
2016-11-14T00:43:27.907Z,19.5
2016-11-14T00:44:36.680Z,19.48
2016-11-14T00:45:46.314Z,19.43
2016-11-14T00:46:54.999Z,19.44
2016-11-14T00:48:04.119Z,19.44
2016-11-14T00:49:13.118Z,19.41
2016-11-14T00:50:21.814Z,19.43
2016-11-14T00:51:30.807Z,19.51
2016-11-14T00:52:39.805Z,19.54
2016-11-14T00:53:48.589Z,19.48
2016-11-14T00:54:57.593Z,19.5
2016-11-14T00:56:06.917Z,19.43
2016-11-14T00:57:15.938Z,19.47
2016-11-14T00:58:24.638Z,19.5
2016-11-14T00:59:34.607Z,19.44
2016-11-14T01:00:43.680Z,19.48
2016-11-14T01:01:52.698Z,19.5
2016-11-14T01:03:01.703Z,19.41
2016-11-14T01:04:11.048Z,19.46
2016-11-14T01:05:20.356Z,19.43
2016-11-14T01:06:29.055Z,19.47
2016-11-14T01:07:37.962Z,19.46
2016-11-14T01:08:46.956Z,19.5
2016-11-14T01:09:55.694Z,19.39
2016-11-14T01:11:05.309Z,19.44
2016-11-14T01:12:14.316Z,19.48
2016-11-14T01:13:23.352Z,19.4
2016-11-14T01:14:32.430Z,19.36
2016-11-14T01:15:41.732Z,19.48
2016-11-14T01:16:50.412Z,19.41
2016-11-14T01:17:59.718Z,19.47
2016-11-14T01:19:08.837Z,19.41
2016-11-14T01:20:18.439Z,19.44
2016-11-14T01:21:27.786Z,19.51
2016-11-14T01:22:37.402Z,19.41
2016-11-14T01:23:46.731Z,19.37
2016-11-14T01:24:55.717Z,19.37
2016-11-14T01:26:04.711Z,19.33
2016-11-14T01:27:13.727Z,19.44
2016-11-14T01:28:22.732Z,19.36
2016-11-14T01:29:31.733Z,19.36
2016-11-14T01:30:41.054Z,19.33
2016-11-14T01:31:50.664Z,19.33
2016-11-14T01:32:59.687Z,19.32
2016-11-14T01:34:08.695Z,19.32
2016-11-14T01:35:18.301Z,19.4
2016-11-14T01:36:26.988Z,19.43
2016-11-14T01:37:36.288Z,19.37
2016-11-14T01:38:45.591Z,19.32
2016-11-14T01:39:54.589Z,19.33
2016-11-14T01:41:04.203Z,19.37
2016-11-14T01:42:13.494Z,19.39
2016-11-14T01:43:22.791Z,19.36
2016-11-14T01:44:31.780Z,19.32
2016-11-14T01:45:41.496Z,19.36
2016-11-14T01:46:50.861Z,19.26
2016-11-14T01:47:59.547Z,19.36
2016-11-14T01:49:08.845Z,19.28
2016-11-14T01:50:17.831Z,19.28
2016-11-14T01:51:26.513Z,19.23
2016-11-14T01:52:35.498Z,19.26
2016-11-14T01:53:44.492Z,19.26
2016-11-14T01:54:53.491Z,19.28
2016-11-14T01:56:02.816Z,19.31
2016-11-14T01:57:11.507Z,19.23
2016-11-14T01:58:21.144Z,19.25
2016-11-14T01:59:30.130Z,19.28
2016-11-14T02:00:39.153Z,19.26
2016-11-14T02:01:48.141Z,19.26
2016-11-14T02:02:56.827Z,19.22
2016-11-14T02:04:05.833Z,19.28
2016-11-14T02:05:14.828Z,19.31
2016-11-14T02:06:23.513Z,19.25
2016-11-14T02:07:32.189Z,19.22
2016-11-14T02:08:41.187Z,19.29
2016-11-14T02:09:50.165Z,19.23
2016-11-14T02:10:59.170Z,19.33
2016-11-14T02:12:08.789Z,19.25
2016-11-14T02:13:17.469Z,19.32
2016-11-14T02:14:26.463Z,19.21
2016-11-14T02:15:35.156Z,19.21
2016-11-14T02:16:44.139Z,19.21
2016-11-14T02:17:53.144Z,19.29
2016-11-14T02:19:02.289Z,19.25
2016-11-14T02:20:11.581Z,19.21
2016-11-14T02:21:20.885Z,19.23
2016-11-14T02:22:30.799Z,19.23
2016-11-14T02:23:39.794Z,19.22
2016-11-14T02:24:49.207Z,19.23
2016-11-14T02:25:58.190Z,19.19
2016-11-14T02:27:07.177Z,19.25
2016-11-14T02:28:16.160Z,19.25
2016-11-14T02:29:25.792Z,19.18
2016-11-14T02:30:34.479Z,19.16
2016-11-14T02:31:43.472Z,19.16
2016-11-14T02:32:52.774Z,19.19
2016-11-14T02:34:01.475Z,19.22
2016-11-14T02:35:10.164Z,19.13
2016-11-14T02:36:19.447Z,19.18
2016-11-14T02:37:28.782Z,19.18
2016-11-14T02:38:37.774Z,19.11
2016-11-14T02:39:46.807Z,19.22
2016-11-14T02:40:55.496Z,19.1
2016-11-14T02:42:04.338Z,19.21
2016-11-14T02:43:13.029Z,19.14
2016-11-14T02:44:22.378Z,19.11
2016-11-14T02:45:31.366Z,19.13
2016-11-14T02:46:40.343Z,19.14
2016-11-14T02:47:49.343Z,19.18
2016-11-14T02:48:58.329Z,19.1
2016-11-14T02:50:07.943Z,19.16
2016-11-14T02:51:16.967Z,19.16
2016-11-14T02:52:25.985Z,19.1
2016-11-14T02:53:34.718Z,19.1
2016-11-14T02:54:44.324Z,19.1
2016-11-14T02:55:53.313Z,19.11
2016-11-14T02:57:02.304Z,19.11
2016-11-14T02:58:11.603Z,19.13
2016-11-14T02:59:20.290Z,19.08
2016-11-14T03:00:29.275Z,19.13
2016-11-14T03:01:38.598Z,19.11
2016-11-14T03:02:47.908Z,19.1
2016-11-14T03:03:56.932Z,19.08
2016-11-14T03:05:06.224Z,19.13
2016-11-14T03:06:14.912Z,19.08
2016-11-14T03:07:23.904Z,19.06
2016-11-14T03:08:32.893Z,19.08
2016-11-14T03:09:41.886Z,19.1
2016-11-14T03:10:50.885Z,19.04
2016-11-14T03:11:59.875Z,19.13
2016-11-14T03:13:08.866Z,19.11
2016-11-14T03:14:17.573Z,19.07
2016-11-14T03:15:26.579Z,19.13
2016-11-14T03:16:35.562Z,19.1
2016-11-14T03:17:44.560Z,19.11
2016-11-14T03:18:53.245Z,19.07
2016-11-14T03:20:01.944Z,19.08
2016-11-14T03:21:10.628Z,19.11
2016-11-14T03:22:19.327Z,19.07
2016-11-14T03:23:28.629Z,19.07
2016-11-14T03:24:37.932Z,19.11
2016-11-14T03:25:46.931Z,19.08
2016-11-14T03:26:55.925Z,19.04
2016-11-14T03:28:04.924Z,19
2016-11-14T03:29:14.254Z,19.02
2016-11-14T03:30:23.046Z,18.98
2016-11-14T03:31:32.079Z,19.04
2016-11-14T03:32:41.122Z,19.06
2016-11-14T03:33:50.726Z,19.04
2016-11-14T03:34:59.723Z,19.07
2016-11-14T03:36:08.758Z,19.04
2016-11-14T03:37:17.449Z,19.07
2016-11-14T03:38:26.437Z,18.94
2016-11-14T03:39:35.593Z,18.99
2016-11-14T03:40:44.588Z,18.98
2016-11-14T03:41:53.881Z,18.98
2016-11-14T03:43:02.565Z,19
2016-11-14T03:44:11.574Z,19
2016-11-14T03:45:20.599Z,19.04
2016-11-14T03:46:29.593Z,18.98
2016-11-14T03:47:39.207Z,19.07
2016-11-14T03:48:48.197Z,18.95
2016-11-14T03:49:57.489Z,18.98
2016-11-14T03:51:06.177Z,18.95
2016-11-14T03:52:14.855Z,18.95
2016-11-14T03:53:23.939Z,18.94
2016-11-14T03:54:33.237Z,18.98
2016-11-14T03:55:42.545Z,19.02
2016-11-14T03:56:51.584Z,18.99
2016-11-14T03:58:00.268Z,18.99
2016-11-14T03:59:09.273Z,19.02
2016-11-14T04:00:18.267Z,19
2016-11-14T04:01:27.262Z,18.99
2016-11-14T04:02:37.183Z,18.98
2016-11-14T04:03:45.885Z,18.95
2016-11-14T04:04:54.570Z,18.95
2016-11-14T04:06:03.567Z,18.92
2016-11-14T04:07:13.205Z,18.99
2016-11-14T04:08:22.342Z,18.98
2016-11-14T04:09:31.969Z,18.98
2016-11-14T04:10:40.967Z,18.91
2016-11-14T04:11:49.659Z,18.95
2016-11-14T04:12:58.341Z,18.91
2016-11-14T04:14:07.338Z,18.98
2016-11-14T04:15:16.331Z,18.94
2016-11-14T04:16:25.632Z,18.94
2016-11-14T04:17:34.964Z,18.94
2016-11-14T04:18:43.961Z,18.95
2016-11-14T04:19:52.652Z,18.91
2016-11-14T04:21:01.667Z,18.92
2016-11-14T04:22:10.351Z,18.88
2016-11-14T04:23:19.673Z,18.9
2016-11-14T04:24:28.368Z,18.84
2016-11-14T04:25:37.660Z,18.82
2016-11-14T04:26:46.646Z,18.94
2016-11-14T04:27:55.704Z,19.02
2016-11-14T04:29:04.388Z,18.91
2016-11-14T04:30:13.072Z,18.9
2016-11-14T04:31:22.058Z,18.9
2016-11-14T04:32:31.359Z,18.95
2016-11-14T04:33:40.381Z,18.92
2016-11-14T04:34:49.579Z,18.95
2016-11-14T04:35:58.576Z,18.87
2016-11-14T04:37:08.332Z,18.9
2016-11-14T04:38:17.641Z,18.95
2016-11-14T04:39:26.938Z,18.85
2016-11-14T04:40:35.632Z,18.88
2016-11-14T04:41:44.630Z,18.87
2016-11-14T04:42:53.630Z,18.91
2016-11-14T04:44:02.613Z,18.9
2016-11-14T04:45:12.226Z,18.82
2016-11-14T04:46:21.526Z,18.9
2016-11-14T04:47:30.519Z,18.78
2016-11-14T04:48:39.361Z,18.84
2016-11-14T04:49:48.041Z,18.84
2016-11-14T04:50:57.024Z,18.87
2016-11-14T04:52:06.026Z,18.78
2016-11-14T04:53:14.736Z,18.85
2016-11-14T04:54:23.576Z,18.81
2016-11-14T04:55:32.876Z,18.85
2016-11-14T04:56:41.872Z,18.84
2016-11-14T04:57:50.568Z,18.85
2016-11-14T04:58:59.595Z,18.81
2016-11-14T05:00:08.936Z,18.87
2016-11-14T05:01:18.262Z,18.82
2016-11-14T05:02:26.987Z,18.87
2016-11-14T05:03:35.974Z,18.81
2016-11-14T05:04:45.282Z,18.87
2016-11-14T05:05:54.299Z,18.81
2016-11-14T05:07:03.590Z,18.81
2016-11-14T05:08:12.283Z,18.81
2016-11-14T05:09:21.590Z,18.81
2016-11-14T05:10:30.280Z,18.82
2016-11-14T05:11:39.761Z,18.76
2016-11-14T05:12:48.748Z,18.81
2016-11-14T05:13:57.773Z,18.88
2016-11-14T05:15:07.117Z,18.78
2016-11-14T05:16:16.168Z,18.78
2016-11-14T05:17:24.935Z,18.76
2016-11-14T05:18:34.225Z,18.82
2016-11-14T05:19:43.244Z,18.76
2016-11-14T05:20:52.889Z,18.8
2016-11-14T05:22:01.931Z,18.8
2016-11-14T05:23:11.546Z,18.81
2016-11-14T05:24:20.264Z,18.78
2016-11-14T05:25:29.566Z,18.81
2016-11-14T05:26:38.563Z,18.73
2016-11-14T05:27:47.563Z,18.82
2016-11-14T05:28:56.917Z,18.72
2016-11-14T05:30:06.236Z,18.78
2016-11-14T05:31:15.867Z,18.72
2016-11-14T05:32:24.889Z,18.73
2016-11-14T05:33:33.888Z,18.8
2016-11-14T05:34:43.032Z,18.81
2016-11-14T05:35:51.730Z,18.82
2016-11-14T05:37:00.449Z,18.87
2016-11-14T05:38:09.774Z,18.91
2016-11-14T05:39:18.459Z,18.82
2016-11-14T05:40:27.819Z,18.94
2016-11-14T05:41:37.127Z,18.92
2016-11-14T05:42:45.838Z,18.95
2016-11-14T05:43:55.175Z,18.99
2016-11-14T05:45:04.478Z,19.11
2016-11-14T05:46:13.817Z,19.13
2016-11-14T05:47:23.125Z,19.18
2016-11-14T05:48:32.122Z,19.36
2016-11-14T05:49:41.432Z,19.33
2016-11-14T05:50:50.745Z,19.33
2016-11-14T05:51:59.481Z,19.44
2016-11-14T05:53:08.791Z,19.54
2016-11-14T05:54:18.090Z,19.56
2016-11-14T05:55:27.404Z,19.55
2016-11-14T05:56:36.709Z,19.55
2016-11-14T05:57:45.850Z,19.69
2016-11-14T05:58:54.542Z,19.63
2016-11-14T06:00:03.844Z,19.76
2016-11-14T06:01:12.837Z,19.83
2016-11-14T06:02:21.835Z,19.86
2016-11-14T06:03:30.678Z,19.86
2016-11-14T06:04:39.984Z,19.96
2016-11-14T06:05:48.981Z,19.99
2016-11-14T06:06:58.288Z,20.08
2016-11-14T06:08:06.977Z,20.06
2016-11-14T06:09:16.144Z,20.13
2016-11-14T06:10:25.452Z,20.11
2016-11-14T06:11:34.447Z,20.21
2016-11-14T06:12:43.232Z,20.26
2016-11-14T06:13:52.257Z,20.29
2016-11-14T06:15:01.005Z,20.32
2016-11-14T06:16:09.732Z,20.39
2016-11-14T06:17:18.721Z,20.36
2016-11-14T06:18:27.915Z,20.32
2016-11-14T06:19:37.241Z,20.41
2016-11-14T06:20:45.929Z,20.54
2016-11-14T06:21:54.619Z,20.55
2016-11-14T06:23:04.119Z,20.54
2016-11-14T06:24:12.929Z,20.47
2016-11-14T06:25:21.618Z,20.52
2016-11-14T06:26:30.663Z,20.67
2016-11-14T06:27:39.375Z,20.58
2016-11-14T06:28:48.368Z,20.73
2016-11-14T06:29:57.365Z,20.64
2016-11-14T06:31:06.562Z,20.72
2016-11-14T06:32:16.545Z,20.77
2016-11-14T06:33:25.894Z,20.89
2016-11-14T06:34:35.534Z,20.85
2016-11-14T06:35:44.237Z,20.91
2016-11-14T06:36:53.529Z,20.97
2016-11-14T06:38:02.390Z,20.98
2016-11-14T06:39:11.400Z,20.99
2016-11-14T06:40:21.137Z,21.06
2016-11-14T06:41:30.312Z,21.03
2016-11-14T06:42:39.916Z,21.06
2016-11-14T06:43:49.437Z,21.13
2016-11-14T06:44:59.056Z,21.12
2016-11-14T06:46:07.801Z,21.24
2016-11-14T06:47:17.541Z,21.31
2016-11-14T06:48:26.631Z,21.32
2016-11-14T06:49:35.972Z,21.4
2016-11-14T06:50:44.980Z,21.43
2016-11-14T06:51:54.048Z,21.4
2016-11-14T06:53:03.617Z,21.35
2016-11-14T06:54:14.801Z,21.44
2016-11-14T06:55:25.110Z,21.37
2016-11-14T06:56:34.110Z,21.44
2016-11-14T06:57:42.788Z,21.46
2016-11-14T06:58:51.802Z,21.53
2016-11-14T07:00:00.817Z,21.53
2016-11-14T07:01:10.423Z,21.59
2016-11-14T07:02:19.419Z,21.52
2016-11-14T07:03:28.113Z,21.58
2016-11-14T07:04:37.428Z,21.54
2016-11-14T07:05:46.427Z,21.62
2016-11-14T07:06:56.371Z,21.62
2016-11-14T07:08:05.151Z,21.53
2016-11-14T07:09:14.473Z,21.59
2016-11-14T07:10:23.502Z,21.64
2016-11-14T07:11:32.197Z,21.62
2016-11-14T07:12:41.502Z,21.64
2016-11-14T07:13:50.891Z,21.61
2016-11-14T07:15:00.821Z,21.53
2016-11-14T07:16:10.117Z,21.52
2016-11-14T07:17:19.415Z,21.58
2016-11-14T07:18:28.429Z,21.61
2016-11-14T07:19:37.429Z,21.59
2016-11-14T07:20:46.132Z,21.58
2016-11-14T07:21:54.834Z,21.59
2016-11-14T07:23:04.140Z,21.56
2016-11-14T07:24:13.460Z,21.58
2016-11-14T07:25:22.200Z,21.54
2016-11-14T07:26:31.504Z,21.54
2016-11-14T07:27:40.528Z,21.37
2016-11-14T07:28:49.535Z,21.46
2016-11-14T07:29:58.855Z,21.35
2016-11-14T07:31:07.906Z,21.35
2016-11-14T07:32:16.947Z,21.32
2016-11-14T07:33:26.001Z,21.25
2016-11-14T07:34:35.011Z,21.24
2016-11-14T07:35:44.359Z,21.25
2016-11-14T07:36:53.089Z,21.24
2016-11-14T07:38:01.779Z,21.16
2016-11-14T07:39:11.685Z,21.13
2016-11-14T07:40:20.375Z,21.16
2016-11-14T07:41:29.212Z,21.04
2016-11-14T07:42:38.847Z,21.04
2016-11-14T07:43:47.541Z,20.98
2016-11-14T07:44:56.239Z,20.97
2016-11-14T07:46:05.242Z,20.92
2016-11-14T07:47:14.563Z,21.01
2016-11-14T07:48:24.232Z,20.92
2016-11-14T07:49:32.936Z,20.87
2016-11-14T07:50:42.257Z,20.82
2016-11-14T07:51:51.305Z,20.85
2016-11-14T07:53:00.373Z,20.89
2016-11-14T07:54:09.082Z,20.76
2016-11-14T07:55:18.102Z,20.82
2016-11-14T07:56:27.455Z,20.82
2016-11-14T07:57:36.157Z,20.76
2016-11-14T07:58:45.454Z,20.82
2016-11-14T07:59:54.456Z,20.72
2016-11-14T08:01:03.765Z,20.66
2016-11-14T08:02:13.069Z,20.72
2016-11-14T08:03:21.765Z,20.67
2016-11-14T08:04:30.754Z,20.69
2016-11-14T08:05:39.770Z,20.74
2016-11-14T08:06:49.092Z,20.67
2016-11-14T08:07:58.104Z,20.74
2016-11-14T08:09:07.419Z,20.67
2016-11-14T08:10:16.410Z,20.66
2016-11-14T08:11:25.405Z,20.62
2016-11-14T08:12:34.412Z,20.66
2016-11-14T08:13:43.761Z,20.61
2016-11-14T08:14:52.766Z,20.64
2016-11-14T08:16:01.459Z,20.62
2016-11-14T08:17:10.154Z,20.54
2016-11-14T08:18:19.181Z,20.52
2016-11-14T08:19:28.172Z,20.59
2016-11-14T08:20:36.865Z,20.52
2016-11-14T08:21:46.528Z,20.5
2016-11-14T08:22:56.171Z,20.57
2016-11-14T08:24:05.169Z,20.51
2016-11-14T08:25:13.903Z,20.57
2016-11-14T08:26:22.908Z,20.54
2016-11-14T08:27:32.281Z,20.47
2016-11-14T08:28:41.898Z,20.47
2016-11-14T08:29:50.650Z,20.55
2016-11-14T08:30:59.964Z,20.55
2016-11-14T08:32:08.655Z,20.48
2016-11-14T08:33:17.514Z,20.43
2016-11-14T08:34:26.845Z,20.41
2016-11-14T08:35:36.198Z,20.41
2016-11-14T08:36:45.520Z,20.36
2016-11-14T08:37:54.817Z,20.41
2016-11-14T08:39:04.182Z,20.36
2016-11-14T08:40:13.486Z,20.38
2016-11-14T08:41:22.170Z,20.36
2016-11-14T08:42:30.937Z,20.32
2016-11-14T08:43:39.937Z,20.39
2016-11-14T08:44:49.107Z,20.32
2016-11-14T08:45:57.857Z,20.38
2016-11-14T08:47:07.163Z,20.24
2016-11-14T08:48:16.537Z,20.35
2016-11-14T08:49:25.235Z,20.28
2016-11-14T08:50:34.230Z,20.21
2016-11-14T08:51:42.933Z,20.33
2016-11-14T08:52:52.246Z,20.17
2016-11-14T08:54:01.580Z,20.23
2016-11-14T08:55:10.290Z,20.21
2016-11-14T08:56:19.770Z,20.17
2016-11-14T08:57:28.813Z,20.16
2016-11-14T08:58:38.142Z,20.28
2016-11-14T08:59:47.143Z,20.08
2016-11-14T09:00:55.925Z,20.18
2016-11-14T09:02:05.872Z,20.18
2016-11-14T09:03:15.500Z,20.16
2016-11-14T09:04:24.208Z,20.11
2016-11-14T09:05:33.215Z,20.18
2016-11-14T09:06:42.213Z,20.06
2016-11-14T09:07:51.536Z,20.21
2016-11-14T09:09:00.550Z,20.21
2016-11-14T09:10:09.246Z,20.11
2016-11-14T09:11:18.101Z,20.08
2016-11-14T09:12:26.799Z,20.08
2016-11-14T09:13:35.495Z,20.2
2016-11-14T09:14:44.515Z,20.1
2016-11-14T09:15:53.818Z,20.06
2016-11-14T09:17:03.138Z,20.08
2016-11-14T09:18:11.995Z,20.17
2016-11-14T09:19:21.435Z,20.11
2016-11-14T09:20:30.296Z,20.16
2016-11-14T09:21:39.035Z,20.11
2016-11-14T09:22:48.336Z,20.17
2016-11-14T09:23:57.404Z,20.06
2016-11-14T09:25:06.869Z,20.14
2016-11-14T09:26:15.579Z,20.1
2016-11-14T09:27:25.221Z,20.17
2016-11-14T09:28:34.536Z,20.13
2016-11-14T09:29:43.629Z,20.14
2016-11-14T09:30:52.990Z,20.06
2016-11-14T09:32:01.701Z,20.13
2016-11-14T09:33:11.011Z,20.11
2016-11-14T09:34:19.765Z,20.1
2016-11-14T09:35:28.787Z,20.16
2016-11-14T09:36:37.802Z,20.18
2016-11-14T09:37:46.796Z,20.08
2016-11-14T09:38:56.107Z,20.08
2016-11-14T09:40:05.461Z,20.14
2016-11-14T09:41:15.075Z,20.11
2016-11-14T09:42:24.085Z,20.1
2016-11-14T09:43:33.093Z,20.13
2016-11-14T09:44:42.412Z,20.11
2016-11-14T09:45:51.711Z,20.1
2016-11-14T09:47:00.396Z,20.11
2016-11-14T09:48:09.444Z,20.11
2016-11-14T09:49:18.763Z,20.1
2016-11-14T09:50:27.785Z,20.08
2016-11-14T09:51:36.803Z,20.18
2016-11-14T09:52:45.852Z,20.11
2016-11-14T09:53:55.214Z,20.16
2016-11-14T09:55:04.232Z,20.06
2016-11-14T09:56:13.895Z,20.11
2016-11-14T09:57:23.211Z,20.1
2016-11-14T09:58:32.250Z,20.06
2016-11-14T09:59:41.007Z,20.08
2016-11-14T10:00:50.008Z,20.21
2016-11-14T10:01:58.993Z,20.17
2016-11-14T10:03:08.308Z,20.1
2016-11-14T10:04:17.337Z,20.1
2016-11-14T10:05:26.337Z,20.2
2016-11-14T10:06:35.339Z,20.06
2016-11-14T10:07:44.375Z,20.13
2016-11-14T10:08:54.017Z,20.21
2016-11-14T10:10:03.022Z,20.11
2016-11-14T10:11:12.925Z,20.13
2016-11-14T10:12:21.616Z,20.11
2016-11-14T10:13:30.327Z,20.11
2016-11-14T10:14:39.212Z,20.11
2016-11-14T10:15:48.253Z,20.11
2016-11-14T10:16:57.578Z,20.11
2016-11-14T10:18:06.608Z,20.1
2016-11-14T10:19:15.302Z,20.08
2016-11-14T10:20:24.295Z,20.11
2016-11-14T10:21:33.632Z,20.06
2016-11-14T10:22:42.340Z,20.11
2016-11-14T10:23:51.037Z,20.16
2016-11-14T10:25:00.422Z,20.11
2016-11-14T10:26:09.130Z,20.1
2016-11-14T10:27:17.841Z,20.11
2016-11-14T10:28:27.164Z,20.08
2016-11-14T10:29:36.176Z,20.08
2016-11-14T10:30:44.916Z,20.16
2016-11-14T10:31:54.526Z,20.08
2016-11-14T10:33:03.231Z,20.16
2016-11-14T10:34:12.126Z,20.06
2016-11-14T10:35:21.432Z,20.11
2016-11-14T10:36:30.728Z,20.08
2016-11-14T10:37:39.444Z,20.08
2016-11-14T10:38:48.780Z,20.11
2016-11-14T10:39:57.825Z,20.13
2016-11-14T10:41:07.429Z,20.11
2016-11-14T10:42:16.743Z,20.08
2016-11-14T10:43:25.768Z,20.11
2016-11-14T10:44:34.848Z,20.13
2016-11-14T10:45:44.156Z,20.08
2016-11-14T10:46:52.865Z,20.11
2016-11-14T10:48:01.875Z,20.08
2016-11-14T10:49:11.176Z,20.11
2016-11-14T10:50:19.880Z,20.06
2016-11-14T10:51:29.554Z,20.11
2016-11-14T10:52:38.262Z,20.11
2016-11-14T10:53:47.040Z,20.05
2016-11-14T10:54:55.750Z,20.13
2016-11-14T10:56:04.766Z,20.13
2016-11-14T10:57:14.073Z,20.06
2016-11-14T10:58:23.381Z,19.99
2016-11-14T10:59:32.689Z,20.11
2016-11-14T11:00:41.685Z,20.03
2016-11-14T11:01:51.016Z,20.03
2016-11-14T11:03:00.131Z,20.1
2016-11-14T11:04:09.428Z,20.03
2016-11-14T11:05:18.730Z,20.11
2016-11-14T11:06:27.449Z,19.98
2016-11-14T11:07:36.193Z,19.99
2016-11-14T11:08:45.496Z,19.99
2016-11-14T11:09:54.581Z,20.08
2016-11-14T11:11:03.329Z,20.02
2016-11-14T11:12:12.635Z,20.05
2016-11-14T11:13:21.747Z,20.05
2016-11-14T11:14:30.494Z,20.01
2016-11-14T11:15:39.188Z,20.03
2016-11-14T11:16:48.812Z,20.02
2016-11-14T11:17:57.558Z,19.99
2016-11-14T11:19:06.283Z,20.01
2016-11-14T11:20:15.715Z,20.03
2016-11-14T11:21:25.022Z,19.99
2016-11-14T11:22:33.726Z,20.01
2016-11-14T11:23:43.348Z,20.01
2016-11-14T11:24:52.048Z,19.99
2016-11-14T11:26:01.362Z,19.99
2016-11-14T11:27:10.413Z,19.98
2016-11-14T11:28:19.407Z,19.98
2016-11-14T11:29:29.040Z,20.06
2016-11-14T11:30:38.120Z,20.01
2016-11-14T11:31:47.465Z,19.96
2016-11-14T11:32:56.820Z,20.05
2016-11-14T11:34:05.837Z,19.98
2016-11-14T11:35:15.178Z,19.99
2016-11-14T11:36:24.491Z,19.95
2016-11-14T11:37:33.816Z,20.03
2016-11-14T11:38:43.122Z,19.98
2016-11-14T11:39:51.828Z,19.98
2016-11-14T11:41:00.830Z,20.06
2016-11-14T11:42:09.849Z,20.01
2016-11-14T11:43:19.476Z,19.99
2016-11-14T11:44:29.157Z,20.03
2016-11-14T11:45:37.948Z,19.98
2016-11-14T11:46:46.652Z,20.01
2016-11-14T11:47:56.061Z,20.06
2016-11-14T11:49:05.121Z,19.98
2016-11-14T11:50:14.176Z,20.03
2016-11-14T11:51:23.226Z,20.02
2016-11-14T11:52:32.533Z,19.98
2016-11-14T11:53:41.603Z,19.99
2016-11-14T11:54:51.088Z,19.99
2016-11-14T11:56:00.442Z,19.98
2016-11-14T11:57:09.855Z,19.98
2016-11-14T11:58:19.197Z,19.99
2016-11-14T11:59:27.980Z,19.99
2016-11-14T12:00:37.015Z,19.98
2016-11-14T12:01:46.633Z,19.98
2016-11-14T12:02:55.663Z,19.95
2016-11-14T12:04:04.671Z,20.06
2016-11-14T12:05:13.689Z,19.96
2016-11-14T12:06:22.833Z,19.95
2016-11-14T12:07:31.533Z,19.98
2016-11-14T12:08:40.864Z,19.98
2016-11-14T12:09:49.576Z,19.98
2016-11-14T12:10:58.866Z,20.05
2016-11-14T12:12:08.844Z,19.98
2016-11-14T12:13:18.154Z,20.01
2016-11-14T12:14:27.153Z,19.95
2016-11-14T12:15:36.504Z,20.02
2016-11-14T12:16:45.906Z,19.98
2016-11-14T12:17:55.272Z,19.99
2016-11-14T12:19:04.038Z,19.99
2016-11-14T12:20:13.603Z,19.95
2016-11-14T12:21:22.959Z,20.01
2016-11-14T12:22:31.687Z,19.95
2016-11-14T12:23:41.192Z,19.96
2016-11-14T12:24:50.516Z,19.98
2016-11-14T12:25:59.852Z,19.98
2016-11-14T12:27:09.277Z,19.99
2016-11-14T12:28:18.347Z,20.06
2016-11-14T12:29:27.239Z,19.99
2016-11-14T12:30:36.275Z,19.99
2016-11-14T12:31:45.068Z,19.94
2016-11-14T12:32:54.121Z,20.01
2016-11-14T12:34:03.790Z,19.99
2016-11-14T12:35:13.147Z,19.98
2016-11-14T12:36:21.927Z,19.99
2016-11-14T12:37:30.620Z,20.02
2016-11-14T12:38:39.720Z,19.95
2016-11-14T12:39:49.412Z,20.01
2016-11-14T12:40:58.779Z,19.99
2016-11-14T12:42:08.108Z,20.03
2016-11-14T12:43:17.138Z,19.99
2016-11-14T12:44:25.876Z,20.01
2016-11-14T12:45:34.882Z,19.99
2016-11-14T12:46:44.197Z,20.03
2016-11-14T12:47:53.543Z,19.98
2016-11-14T12:49:02.601Z,20.01
2016-11-14T12:50:11.602Z,19.92
2016-11-14T12:51:20.990Z,20.01
2016-11-14T12:52:29.710Z,19.95
2016-11-14T12:53:38.764Z,19.94
2016-11-14T12:54:47.790Z,19.95
2016-11-14T12:55:56.530Z,19.98
2016-11-14T12:57:05.543Z,19.95
2016-11-14T12:58:14.721Z,20.03
2016-11-14T12:59:24.048Z,20.01
2016-11-14T13:00:32.750Z,19.94
2016-11-14T13:01:41.489Z,20.03
2016-11-14T13:02:50.512Z,19.98
2016-11-14T13:03:59.696Z,19.98
2016-11-14T13:05:08.714Z,19.99
2016-11-14T13:06:18.058Z,20.02
2016-11-14T13:07:26.802Z,19.99
2016-11-14T13:08:35.581Z,20.06
2016-11-14T13:09:44.621Z,19.94
2016-11-14T13:10:53.363Z,19.99
2016-11-14T13:12:02.397Z,19.99
2016-11-14T13:13:43.499Z,20.03
2016-11-14T13:14:52.529Z,20.01
2016-11-14T13:16:01.554Z,19.96
2016-11-14T13:17:10.624Z,19.96
2016-11-14T13:18:19.466Z,20.01
2016-11-14T13:19:28.519Z,19.98
2016-11-14T13:20:37.265Z,19.92
2016-11-14T13:21:46.361Z,19.99
2016-11-14T13:22:55.675Z,19.88
2016-11-14T13:24:04.719Z,19.99
2016-11-14T13:25:13.715Z,19.98
2016-11-14T13:26:23.055Z,19.99
2016-11-14T13:27:31.742Z,19.96
2016-11-14T13:28:41.050Z,19.96
2016-11-14T13:29:50.093Z,19.94
2016-11-14T13:30:59.101Z,19.92
2016-11-14T13:32:08.105Z,19.98
2016-11-14T13:33:17.113Z,19.96
2016-11-14T13:34:26.116Z,19.94
2016-11-14T13:35:34.846Z,19.98
2016-11-14T13:36:43.900Z,19.98
2016-11-14T13:37:53.022Z,19.91
2016-11-14T13:39:02.099Z,20.01
2016-11-14T13:40:11.412Z,19.96
2016-11-14T13:41:20.419Z,19.98
2016-11-14T13:42:29.726Z,19.99
2016-11-14T13:43:38.433Z,19.98
2016-11-14T13:44:47.768Z,19.94
2016-11-14T13:45:56.478Z,19.86
2016-11-14T13:47:05.984Z,19.95
2016-11-14T13:48:15.440Z,19.95
2016-11-14T13:49:25.067Z,19.91
2016-11-14T13:50:33.770Z,19.91
2016-11-14T13:51:42.460Z,19.92
2016-11-14T13:52:51.807Z,19.84
2016-11-14T13:54:00.527Z,19.84
2016-11-14T13:55:09.527Z,19.84
2016-11-14T13:56:18.552Z,19.92
2016-11-14T13:57:27.892Z,19.87
2016-11-14T13:58:37.605Z,19.83
2016-11-14T13:59:46.302Z,19.88
2016-11-14T14:00:55.028Z,19.91
2016-11-14T14:02:03.739Z,19.91
2016-11-14T14:03:13.404Z,19.87
2016-11-14T14:04:22.440Z,19.86
2016-11-14T14:05:31.448Z,19.84
2016-11-14T14:06:40.769Z,19.92
2016-11-14T14:07:49.783Z,19.92
2016-11-14T14:08:59.112Z,19.94
2016-11-14T14:10:08.128Z,19.87
2016-11-14T14:11:17.440Z,19.87
2016-11-14T14:12:26.763Z,19.83
2016-11-14T14:13:35.451Z,19.84
2016-11-14T14:14:44.162Z,19.88
2016-11-14T14:15:52.975Z,19.88
2016-11-14T14:17:01.992Z,19.92
2016-11-14T14:18:11.016Z,19.86
2016-11-14T14:19:20.643Z,19.88
2016-11-14T14:20:29.951Z,19.87
2016-11-14T14:21:39.598Z,19.83
2016-11-14T14:22:48.280Z,19.77
2016-11-14T14:23:56.975Z,19.87
2016-11-14T14:25:05.974Z,19.84
2016-11-14T14:26:14.969Z,19.84
2016-11-14T14:27:23.980Z,19.83
2016-11-14T14:28:32.979Z,19.91
2016-11-14T14:29:42.011Z,19.86
2016-11-14T14:30:51.630Z,19.81
2016-11-14T14:32:00.636Z,19.84
2016-11-14T14:33:09.353Z,19.78
2016-11-14T14:34:18.496Z,19.8
2016-11-14T14:35:27.211Z,19.87
2016-11-14T14:36:35.897Z,19.8
2016-11-14T14:37:45.196Z,19.88
2016-11-14T14:38:53.883Z,19.84
2016-11-14T14:40:03.189Z,19.77
2016-11-14T14:41:12.177Z,19.78
2016-11-14T14:42:21.204Z,19.86
2016-11-14T14:43:30.260Z,19.74
2016-11-14T14:44:39.251Z,19.76
2016-11-14T14:45:48.247Z,19.77
2016-11-14T14:46:57.249Z,19.78
2016-11-14T14:48:06.572Z,19.84
2016-11-14T14:49:15.271Z,19.77
2016-11-14T14:50:24.587Z,19.78
2016-11-14T14:51:33.915Z,19.83
2016-11-14T14:52:42.608Z,19.81